SCOT36 YBOK-YBOK
Flight info
| Callsign | SCOT36 |
|---|---|
| Flight time | 0h 2m |
| Altitude | 3500 |
| Route | DCT YBOK DCT |
| Aircraft | H135/L-SDFGRY/LB1 |
Departure
| Time | 2026-04-26 01:27 |
|---|---|
| Airport | Oakey Army Aviation Centre (YBOK) |
Arrival
| Time | 2026-04-26 01:29 |
|---|---|
| Airport | Oakey Army Aviation Centre (YBOK) |
| Time | Latitude | Longitude | Altitude | Speed | Heading |
|---|---|---|---|---|---|
| 2026-04-26 01:17 | -27.41281 | 151.73340 | 1343 ft | 0 kts | 98° |
| 2026-04-26 01:22 | -27.41282 | 151.73341 | 1345 ft | 1 kts | 95° |
| 2026-04-26 01:22 | -27.41282 | 151.73338 | 1352 ft | 0 kts | 94° |
| 2026-04-26 01:22 | -27.41283 | 151.73342 | 1362 ft | 3 kts | 95° |
| 2026-04-26 01:23 | -27.41264 | 151.73348 | 1376 ft | 12 kts | 299° |
| 2026-04-26 01:23 | -27.41215 | 151.73303 | 1361 ft | 8 kts | 355° |
| 2026-04-26 01:23 | -27.41182 | 151.73206 | 1343 ft | 18 kts | 276° |
| 2026-04-26 01:23 | -27.41163 | 151.73063 | 1349 ft | 19 kts | 288° |
| 2026-04-26 01:24 | -27.41138 | 151.72909 | 1354 ft | 21 kts | 279° |
| 2026-04-26 01:24 | -27.41113 | 151.72732 | 1353 ft | 25 kts | 284° |
| 2026-04-26 01:24 | -27.41084 | 151.72547 | 1348 ft | 21 kts | 306° |
| 2026-04-26 01:24 | -27.41042 | 151.72484 | 1345 ft | 1 kts | 339° |
| 2026-04-26 01:25 | -27.41044 | 151.72484 | 1343 ft | 1 kts | 341° |
| 2026-04-26 01:25 | -27.41037 | 151.72478 | 1348 ft | 2 kts | 342° |
| 2026-04-26 01:25 | -27.41016 | 151.72471 | 1350 ft | 5 kts | 348° |
| 2026-04-26 01:25 | -27.40972 | 151.72470 | 1354 ft | 8 kts | 6° |
| 2026-04-26 01:26 | -27.40924 | 151.72502 | 1349 ft | 8 kts | 93° |
| 2026-04-26 01:26 | -27.40924 | 151.72546 | 1348 ft | 1 kts | 107° |
| 2026-04-26 01:26 | -27.40924 | 151.72564 | 1349 ft | 7 kts | 107° |
| 2026-04-26 01:26 | -27.40952 | 151.72731 | 1372 ft | 40 kts | 105° |
| 2026-04-26 01:27 | -27.41007 | 151.73107 | 1490 ft | 52 kts | 105° |
| 2026-04-26 01:27 | -27.41050 | 151.73500 | 1640 ft | 48 kts | 97° |
| 2026-04-26 01:27 | -27.40857 | 151.73806 | 1885 ft | 55 kts | 52° |
| 2026-04-26 01:27 | -27.40368 | 151.73786 | 1982 ft | 83 kts | 12° |
| 2026-04-26 01:28 | -27.39748 | 151.73696 | 1968 ft | 104 kts | 337° |
| 2026-04-26 01:28 | -27.39373 | 151.72971 | 2015 ft | 115 kts | 274° |
| 2026-04-26 01:28 | -27.39177 | 151.72009 | 1943 ft | 127 kts | 262° |
| 2026-04-26 01:28 | -27.39513 | 151.71250 | 2032 ft | 99 kts | 198° |
| 2026-04-26 01:29 | -27.40131 | 151.71042 | 1871 ft | 92 kts | 172° |
| 2026-04-26 01:29 | -27.40636 | 151.71233 | 1829 ft | 64 kts | 117° |
| 2026-04-26 01:29 | -27.40778 | 151.71639 | 1734 ft | 54 kts | 98° |
| 2026-04-26 01:29 | -27.40847 | 151.72031 | 1574 ft | 46 kts | 96° |
| 2026-04-26 01:30 | -27.40885 | 151.72331 | 1434 ft | 31 kts | 100° |
| 2026-04-26 01:30 | -27.40914 | 151.72474 | 1360 ft | 5 kts | 104° |
| 2026-04-26 01:30 | -27.40913 | 151.72475 | 1344 ft | 0 kts | 103° |
| 2026-04-26 01:31 | -27.40915 | 151.72480 | 1343 ft | 2 kts | 96° |
| 2026-04-26 01:31 | -27.40929 | 151.72570 | 1404 ft | 25 kts | 98° |
| 2026-04-26 01:32 | -27.40977 | 151.72881 | 1465 ft | 49 kts | 100° |
| 2026-04-26 01:32 | -27.41039 | 151.73291 | 1543 ft | 61 kts | 100° |
| 2026-04-26 01:32 | -27.41007 | 151.73769 | 1696 ft | 66 kts | 69° |
| 2026-04-26 01:32 | -27.40603 | 151.74072 | 1793 ft | 78 kts | 23° |
| 2026-04-26 01:33 | -27.40058 | 151.74084 | 1825 ft | 81 kts | 0° |
| 2026-04-26 01:33 | -27.39672 | 151.73616 | 1889 ft | 85 kts | 280° |
| 2026-04-26 01:33 | -27.39526 | 151.72946 | 1885 ft | 94 kts | 281° |
| 2026-04-26 01:33 | -27.39491 | 151.72200 | 1876 ft | 96 kts | 254° |
| 2026-04-26 01:34 | -27.39828 | 151.71597 | 1830 ft | 87 kts | 209° |
| 2026-04-26 01:34 | -27.40348 | 151.71468 | 1813 ft | 74 kts | 163° |
| 2026-04-26 01:34 | -27.40716 | 151.71741 | 1645 ft | 60 kts | 114° |
| 2026-04-26 01:34 | -27.40846 | 151.72152 | 1459 ft | 50 kts | 105° |
| 2026-04-26 01:35 | -27.40910 | 151.72477 | 1363 ft | 26 kts | 102° |
| 2026-04-26 01:35 | -27.40944 | 151.72656 | 1352 ft | 42 kts | 103° |
| 2026-04-26 01:35 | -27.41000 | 151.73084 | 1435 ft | 60 kts | 100° |
| 2026-04-26 01:35 | -27.41056 | 151.73551 | 1610 ft | 61 kts | 90° |
| 2026-04-26 01:36 | -27.40782 | 151.73828 | 1868 ft | 60 kts | 14° |
| 2026-04-26 01:36 | -27.40290 | 151.73843 | 1989 ft | 82 kts | 337° |
| 2026-04-26 01:36 | -27.39910 | 151.73332 | 2099 ft | 95 kts | 278° |
| 2026-04-26 01:37 | -27.39705 | 151.71771 | 2070 ft | 89 kts | 217° |
| 2026-04-26 01:37 | -27.40172 | 151.71546 | 1923 ft | 71 kts | 187° |
| 2026-04-26 01:37 | -27.40623 | 151.71608 | 1740 ft | 60 kts | 143° |
| 2026-04-26 01:37 | -27.40812 | 151.71981 | 1574 ft | 57 kts | 111° |
| 2026-04-26 01:38 | -27.40883 | 151.72374 | 1433 ft | 40 kts | 109° |
| 2026-04-26 01:38 | -27.40918 | 151.72535 | 1347 ft | 2 kts | 107° |
| 2026-04-26 01:38 | -27.40922 | 151.72531 | 1340 ft | 0 kts | 105° |
| 2026-04-26 01:41 | -27.40924 | 151.72536 | 1343 ft | 1 kts | 106° |
| 2026-04-26 01:41 | -27.40922 | 151.72543 | 1352 ft | 1 kts | 107° |
| 2026-04-26 01:41 | -27.40923 | 151.72542 | 1350 ft | 1 kts | 139° |
| 2026-04-26 01:41 | -27.40933 | 151.72538 | 1351 ft | 2 kts | 20° |
| 2026-04-26 01:42 | -27.40924 | 151.72548 | 1350 ft | 2 kts | 112° |
| 2026-04-26 01:42 | -27.40922 | 151.72556 | 1349 ft | 1 kts | 113° |
| 2026-04-26 01:42 | -27.40922 | 151.72558 | 1348 ft | 0 kts | 99° |
| 2026-04-26 01:42 | -27.40922 | 151.72559 | 1347 ft | 0 kts | 101° |
| 2026-04-26 01:43 | -27.40923 | 151.72559 | 1347 ft | 0 kts | 101° |
| 2026-04-26 01:43 | -27.40924 | 151.72559 | 1347 ft | 0 kts | 101° |
| 2026-04-26 01:43 | -27.40925 | 151.72565 | 1347 ft | 2 kts | 250° |
| 2026-04-26 01:43 | -27.40928 | 151.72558 | 1350 ft | 1 kts | 103° |
| 2026-04-26 01:44 | -27.40925 | 151.72569 | 1347 ft | 3 kts | 104° |
| 2026-04-26 01:44 | -27.40923 | 151.72579 | 1347 ft | 1 kts | 104° |
| 2026-04-26 01:44 | -27.40925 | 151.72581 | 1347 ft | 1 kts | 103° |
| 2026-04-26 01:44 | -27.40927 | 151.72582 | 1347 ft | 0 kts | 103° |
| 2026-04-26 01:45 | -27.40929 | 151.72585 | 1351 ft | 1 kts | 106° |
| 2026-04-26 01:45 | -27.40933 | 151.72602 | 1349 ft | 5 kts | 180° |
| 2026-04-26 01:45 | -27.40933 | 151.72655 | 1358 ft | 9 kts | 188° |
| 2026-04-26 01:45 | -27.40936 | 151.72722 | 1369 ft | 2 kts | 190° |
| 2026-04-26 01:46 | -27.40934 | 151.72716 | 1357 ft | 3 kts | 191° |
| 2026-04-26 01:46 | -27.40939 | 151.72680 | 1347 ft | 7 kts | 191° |
| 2026-04-26 01:46 | -27.40929 | 151.72600 | 1344 ft | 12 kts | 191° |
| 2026-04-26 01:46 | -27.40922 | 151.72525 | 1342 ft | 1 kts | 189° |
| 2026-04-26 01:47 | -27.40919 | 151.72528 | 1341 ft | 1 kts | 109° |
| 2026-04-26 01:47 | -27.40921 | 151.72539 | 1343 ft | 1 kts | 278° |
| 2026-04-26 01:47 | -27.40924 | 151.72560 | 1353 ft | 5 kts | 281° |
| 2026-04-26 01:47 | -27.40932 | 151.72611 | 1359 ft | 4 kts | 282° |
| 2026-04-26 01:48 | -27.40930 | 151.72618 | 1357 ft | 2 kts | 169° |
| 2026-04-26 01:48 | -27.40928 | 151.72583 | 1354 ft | 7 kts | 101° |
| 2026-04-26 01:48 | -27.40919 | 151.72520 | 1347 ft | 3 kts | 104° |
| 2026-04-26 01:48 | -27.40921 | 151.72522 | 1346 ft | 1 kts | 107° |
| 2026-04-26 01:49 | -27.40921 | 151.72533 | 1349 ft | 6 kts | 107° |
| 2026-04-26 01:49 | -27.40954 | 151.72738 | 1383 ft | 47 kts | 103° |
| 2026-04-26 01:49 | -27.41032 | 151.73214 | 1555 ft | 72 kts | 98° |
| 2026-04-26 01:49 | -27.40968 | 151.73711 | 1825 ft | 60 kts | 52° |
| 2026-04-26 01:50 | -27.40556 | 151.73802 | 1936 ft | 67 kts | 6° |
| 2026-04-26 01:50 | -27.40240 | 151.73433 | 2016 ft | 75 kts | 280° |
| 2026-04-26 01:50 | -27.40151 | 151.72832 | 1988 ft | 80 kts | 280° |
| 2026-04-26 01:50 | -27.40067 | 151.72214 | 1898 ft | 80 kts | 275° |
| 2026-04-26 01:51 | -27.40268 | 151.71682 | 1759 ft | 70 kts | 209° |
| 2026-04-26 01:51 | -27.40702 | 151.71661 | 1627 ft | 62 kts | 142° |
| 2026-04-26 01:51 | -27.40848 | 151.72061 | 1543 ft | 51 kts | 104° |
| 2026-04-26 01:51 | -27.40899 | 151.72350 | 1430 ft | 25 kts | 101° |
| 2026-04-26 01:52 | -27.40914 | 151.72488 | 1363 ft | 8 kts | 105° |
| 2026-04-26 01:52 | -27.40918 | 151.72531 | 1343 ft | 0 kts | 108° |
| 2026-04-26 01:52 | -27.40920 | 151.72535 | 1345 ft | 2 kts | 100° |
| 2026-04-26 01:52 | -27.40922 | 151.72536 | 1337 ft | 0 kts | 100° |
| 2026-04-26 01:53 | -27.40923 | 151.72537 | 1348 ft | 0 kts | 100° |
| 2026-04-26 01:54 | -27.40926 | 151.72547 | 1357 ft | 6 kts | 100° |
| 2026-04-26 01:54 | -27.40950 | 151.72696 | 1376 ft | 37 kts | 98° |
| 2026-04-26 01:54 | -27.41027 | 151.73162 | 1487 ft | 78 kts | 100° |
| 2026-04-26 01:54 | -27.41042 | 151.73782 | 1726 ft | 82 kts | 72° |
| 2026-04-26 01:55 | -27.40636 | 151.74236 | 1930 ft | 89 kts | 25° |
| 2026-04-26 01:55 | -27.40013 | 151.74351 | 2054 ft | 92 kts | 12° |
| 2026-04-26 01:55 | -27.39373 | 151.74414 | 2147 ft | 93 kts | 8° |
| 2026-04-26 01:55 | -27.38726 | 151.74435 | 2247 ft | 93 kts | 6° |
| 2026-04-26 01:56 | -27.38077 | 151.74429 | 2342 ft | 93 kts | 4° |
| 2026-04-26 01:56 | -27.37426 | 151.74394 | 2452 ft | 94 kts | 3° |
| 2026-04-26 01:56 | -27.36771 | 151.74309 | 2667 ft | 96 kts | 357° |
| 2026-04-26 01:56 | -27.36098 | 151.74177 | 2728 ft | 101 kts | 353° |
| 2026-04-26 01:57 | -27.35419 | 151.74009 | 2730 ft | 99 kts | 352° |
| 2026-04-26 01:57 | -27.34974 | 151.73891 | 2733 ft | 99 kts | 352° |
| 2026-04-26 01:57 | -27.34085 | 151.73650 | 2730 ft | 99 kts | 352° |
| 2026-04-26 01:57 | -27.33414 | 151.73452 | 2739 ft | 102 kts | 345° |
| 2026-04-26 01:58 | -27.32858 | 151.72941 | 2735 ft | 108 kts | 307° |
| 2026-04-26 01:58 | -27.32660 | 151.72126 | 2713 ft | 111 kts | 269° |
| 2026-04-26 01:58 | -27.32914 | 151.71324 | 2720 ft | 110 kts | 231° |
| 2026-04-26 01:58 | -27.33464 | 151.70741 | 2709 ft | 109 kts | 217° |
| 2026-04-26 01:59 | -27.34029 | 151.70167 | 2814 ft | 109 kts | 226° |
| 2026-04-26 01:59 | -27.34574 | 151.69559 | 3008 ft | 112 kts | 224° |
| 2026-04-26 01:59 | -27.34943 | 151.69133 | 3028 ft | 113 kts | 223° |
| 2026-04-26 01:59 | -27.35616 | 151.68727 | 3012 ft | 110 kts | 179° |
| 2026-04-26 02:00 | -27.36204 | 151.69116 | 2976 ft | 102 kts | 112° |
| 2026-04-26 02:00 | -27.36331 | 151.69894 | 2995 ft | 101 kts | 95° |
| 2026-04-26 02:00 | -27.36018 | 151.70556 | 2988 ft | 105 kts | 33° |
| 2026-04-26 02:00 | -27.35293 | 151.70724 | 2994 ft | 108 kts | 10° |
| 2026-04-26 02:01 | -27.34629 | 151.70339 | 2950 ft | 120 kts | 302° |
| 2026-04-26 02:01 | -27.34442 | 151.69418 | 2949 ft | 121 kts | 280° |
| 2026-04-26 02:01 | -27.34462 | 151.68492 | 2932 ft | 121 kts | 242° |
| 2026-04-26 02:01 | -27.35144 | 151.68018 | 2928 ft | 117 kts | 190° |
| 2026-04-26 02:02 | -27.35930 | 151.67810 | 2931 ft | 115 kts | 187° |
| 2026-04-26 02:02 | -27.36705 | 151.67703 | 2944 ft | 108 kts | 163° |
| 2026-04-26 02:02 | -27.37122 | 151.68248 | 2911 ft | 92 kts | 98° |
| 2026-04-26 02:02 | -27.37208 | 151.68931 | 2897 ft | 87 kts | 95° |
| 2026-04-26 02:03 | -27.37254 | 151.69617 | 2817 ft | 88 kts | 92° |
| 2026-04-26 02:03 | -27.37266 | 151.70314 | 2857 ft | 89 kts | 89° |
| 2026-04-26 02:03 | -27.37234 | 151.70995 | 2688 ft | 85 kts | 84° |
| 2026-04-26 02:03 | -27.37145 | 151.71634 | 2512 ft | 80 kts | 79° |
| 2026-04-26 02:04 | -27.36999 | 151.72233 | 2321 ft | 79 kts | 73° |
| 2026-04-26 02:04 | -27.36800 | 151.72805 | 2257 ft | 79 kts | 66° |
| 2026-04-26 02:04 | -27.36563 | 151.73366 | 2265 ft | 80 kts | 66° |
| 2026-04-26 02:04 | -27.36331 | 151.73959 | 2603 ft | 87 kts | 66° |
| 2026-04-26 02:05 | -27.36136 | 151.74627 | 2931 ft | 93 kts | 73° |
| 2026-04-26 02:05 | -27.35950 | 151.75333 | 3135 ft | 95 kts | 72° |
| 2026-04-26 02:05 | -27.35738 | 151.76032 | 3185 ft | 93 kts | 70° |
| 2026-04-26 02:05 | -27.35516 | 151.76597 | 3241 ft | 59 kts | 65° |
| 2026-04-26 02:06 | -27.35394 | 151.76831 | 3189 ft | 13 kts | 65° |
| 2026-04-26 02:06 | -27.35363 | 151.76840 | 3189 ft | 4 kts | 66° |
| 2026-04-26 02:06 | -27.35336 | 151.76834 | 3189 ft | 4 kts | 66° |
| 2026-04-26 02:06 | -27.35305 | 151.76829 | 3190 ft | 5 kts | 66° |
| 2026-04-26 02:07 | -27.35273 | 151.76824 | 3192 ft | 5 kts | 66° |
| 2026-04-26 02:07 | -27.35238 | 151.76817 | 3193 ft | 5 kts | 66° |
| 2026-04-26 02:07 | -27.35202 | 151.76810 | 3195 ft | 5 kts | 66° |
| 2026-04-26 02:07 | -27.35168 | 151.76803 | 3197 ft | 3 kts | 68° |
| 2026-04-26 02:08 | -27.35166 | 151.76822 | 3199 ft | 3 kts | 89° |
| 2026-04-26 02:08 | -27.35169 | 151.76830 | 3200 ft | 3 kts | 116° |
| 2026-04-26 02:08 | -27.35182 | 151.76864 | 3203 ft | 5 kts | 229° |
| 2026-04-26 02:08 | -27.35308 | 151.76731 | 3210 ft | 51 kts | 230° |
| 2026-04-26 02:09 | -27.35625 | 151.76275 | 3210 ft | 94 kts | 231° |
| 2026-04-26 02:09 | -27.36082 | 151.75583 | 3022 ft | 125 kts | 229° |
| 2026-04-26 02:09 | -27.36718 | 151.74813 | 2785 ft | 139 kts | 216° |
| 2026-04-26 02:09 | -27.37583 | 151.74300 | 2732 ft | 144 kts | 193° |
| 2026-04-26 02:10 | -27.38524 | 151.74041 | 2496 ft | 122 kts | 189° |
| 2026-04-26 02:10 | -27.39250 | 151.73853 | 2224 ft | 102 kts | 199° |
| 2026-04-26 02:10 | -27.39803 | 151.73513 | 2089 ft | 79 kts | 250° |
| 2026-04-26 02:10 | -27.40037 | 151.73018 | 2097 ft | 69 kts | 275° |
| 2026-04-26 02:11 | -27.40128 | 151.72468 | 2069 ft | 74 kts | 282° |
| 2026-04-26 02:11 | -27.40389 | 151.71982 | 1901 ft | 74 kts | 214° |
| 2026-04-26 02:11 | -27.40784 | 151.72049 | 1712 ft | 48 kts | 128° |
| 2026-04-26 02:11 | -27.40886 | 151.72328 | 1500 ft | 25 kts | 88° |
| 2026-04-26 02:12 | -27.40908 | 151.72450 | 1379 ft | 9 kts | 105° |
| 2026-04-26 02:12 | -27.40917 | 151.72509 | 1354 ft | 7 kts | 105° |
| 2026-04-26 02:12 | -27.40919 | 151.72526 | 1337 ft | 0 kts | 106° |
| 2026-04-26 02:12 | -27.40920 | 151.72529 | 1342 ft | 2 kts | 105° |
| 2026-04-26 02:13 | -27.40922 | 151.72530 | 1349 ft | 0 kts | 102° |
| 2026-04-26 02:13 | -27.40928 | 151.72552 | 1354 ft | 9 kts | 101° |
| 2026-04-26 02:13 | -27.40954 | 151.72743 | 1377 ft | 46 kts | 99° |
| 2026-04-26 02:13 | -27.41028 | 151.73235 | 1534 ft | 72 kts | 100° |
| 2026-04-26 02:14 | -27.40971 | 151.73734 | 1803 ft | 66 kts | 51° |
| 2026-04-26 02:14 | -27.40502 | 151.73868 | 2011 ft | 71 kts | 12° |
| 2026-04-26 02:14 | -27.40068 | 151.73656 | 2096 ft | 79 kts | 298° |
| 2026-04-26 02:14 | -27.39936 | 151.73029 | 2094 ft | 85 kts | 279° |
| 2026-04-26 02:15 | -27.39898 | 151.72362 | 2041 ft | 83 kts | 252° |
| 2026-04-26 02:15 | -27.40248 | 151.72027 | 1918 ft | 63 kts | 188° |
| 2026-04-26 02:15 | -27.40646 | 151.71975 | 1725 ft | 50 kts | 160° |
| 2026-04-26 02:15 | -27.40845 | 151.72233 | 1511 ft | 41 kts | 111° |
| 2026-04-26 02:16 | -27.40907 | 151.72454 | 1374 ft | 15 kts | 100° |
| 2026-04-26 02:16 | -27.40917 | 151.72502 | 1339 ft | 0 kts | 105° |
| 2026-04-26 02:16 | -27.40916 | 151.72502 | 1340 ft | 0 kts | 104° |
| 2026-04-26 02:17 | -27.40918 | 151.72504 | 1351 ft | 2 kts | 104° |
| 2026-04-26 02:17 | -27.40930 | 151.72558 | 1363 ft | 14 kts | 103° |
| 2026-04-26 02:17 | -27.40960 | 151.72776 | 1401 ft | 49 kts | 101° |
| 2026-04-26 02:17 | -27.41043 | 151.73283 | 1569 ft | 75 kts | 104° |
| 2026-04-26 02:18 | -27.41035 | 151.73847 | 1812 ft | 72 kts | 66° |
| 2026-04-26 02:18 | -27.40620 | 151.74076 | 2046 ft | 66 kts | 8° |
| 2026-04-26 02:18 | -27.40161 | 151.74095 | 2047 ft | 71 kts | 342° |
| 2026-04-26 02:18 | -27.39954 | 151.73616 | 2039 ft | 74 kts | 277° |
| 2026-04-26 02:19 | -27.39882 | 151.72998 | 2062 ft | 85 kts | 275° |
| 2026-04-26 02:19 | -27.39830 | 151.72308 | 1994 ft | 89 kts | 265° |
| 2026-04-26 02:19 | -27.40171 | 151.71850 | 1861 ft | 77 kts | 197° |
| 2026-04-26 02:19 | -27.40668 | 151.71797 | 1733 ft | 67 kts | 154° |
| 2026-04-26 02:20 | -27.40868 | 151.72184 | 1534 ft | 54 kts | 107° |
| 2026-04-26 02:20 | -27.40916 | 151.72498 | 1381 ft | 21 kts | 106° |
| 2026-04-26 02:20 | -27.40920 | 151.72528 | 1349 ft | 1 kts | 108° |
| 2026-04-26 02:20 | -27.40929 | 151.72551 | 1359 ft | 14 kts | 108° |
| 2026-04-26 02:21 | -27.40973 | 151.72849 | 1373 ft | 67 kts | 101° |
| 2026-04-26 02:21 | -27.41058 | 151.73427 | 1623 ft | 73 kts | 103° |
| 2026-04-26 02:21 | -27.41001 | 151.73947 | 1835 ft | 67 kts | 53° |
| 2026-04-26 02:21 | -27.40560 | 151.74075 | 2006 ft | 68 kts | 2° |
| 2026-04-26 02:22 | -27.40133 | 151.73865 | 2028 ft | 76 kts | 304° |
| 2026-04-26 02:22 | -27.40031 | 151.73255 | 2038 ft | 84 kts | 277° |
| 2026-04-26 02:22 | -27.39981 | 151.72573 | 2026 ft | 90 kts | 273° |
| 2026-04-26 02:22 | -27.40162 | 151.71970 | 2017 ft | 80 kts | 208° |
| 2026-04-26 02:23 | -27.40653 | 151.71845 | 1851 ft | 65 kts | 154° |
| 2026-04-26 02:23 | -27.40854 | 151.72132 | 1626 ft | 39 kts | 97° |
| 2026-04-26 02:23 | -27.40899 | 151.72389 | 1471 ft | 27 kts | 103° |
| 2026-04-26 02:23 | -27.40920 | 151.72524 | 1351 ft | 6 kts | 102° |
| 2026-04-26 02:24 | -27.40933 | 151.72608 | 1349 ft | 14 kts | 102° |
| 2026-04-26 02:24 | -27.40953 | 151.72722 | 1348 ft | 16 kts | 101° |
| 2026-04-26 02:24 | -27.40973 | 151.72841 | 1345 ft | 12 kts | 174° |
| 2026-04-26 02:24 | -27.41056 | 151.72841 | 1348 ft | 17 kts | 201° |
| 2026-04-26 02:25 | -27.41143 | 151.72931 | 1352 ft | 23 kts | 108° |
| 2026-04-26 02:25 | -27.41167 | 151.73091 | 1352 ft | 17 kts | 106° |
| 2026-04-26 02:25 | -27.41184 | 151.73197 | 1348 ft | 13 kts | 106° |
| 2026-04-26 02:25 | -27.41198 | 151.73284 | 1348 ft | 8 kts | 140° |
| 2026-04-26 02:26 | -27.41264 | 151.73292 | 1342 ft | 9 kts | 177° |
| 2026-04-26 02:26 | -27.41279 | 151.73327 | 1341 ft | 4 kts | 103° |
| 2026-04-26 02:26 | -27.41280 | 151.73330 | 1338 ft | 0 kts | 98° |